Time,TemperatureF,DewpointF,PressureIn,WindDirection,WindDirectionDegrees,WindSpeedMPH,WindSpeedGustMPH,Humidity,HourlyPrecipIn,Conditions,Clouds,dailyrainin,SoftwareType,DateUTC
2017-03-26 00:03:00,46.8,45.5,29.89,NNW,335,0.0,3.0,95,0.00,,,0.09,VWS V15.00,2017-03-26 05:03:00,
2017-03-26 00:13:00,46.8,45.5,29.89,NNW,335,1.0,3.0,95,0.00,,,0.09,VWS V15.00,2017-03-26 05:13:00,
2017-03-26 00:23:00,46.8,45.5,29.89,West,269,2.0,3.0,95,0.00,,,0.09,VWS V15.00,2017-03-26 05:23:00,
2017-03-26 00:33:00,46.9,45.5,29.89,West,269,2.0,3.0,95,0.00,,,0.09,VWS V15.00,2017-03-26 05:33:00,
2017-03-26 00:35:00,46.9,45.5,29.87,West,269,0.0,3.0,95,0.00,,,0.00,VWS V15.00,2017-03-26 05:35:00,
2017-03-26 00:38:00,46.9,45.5,29.89,West,269,1.0,3.0,95,0.00,,,0.09,VWS V15.00,2017-03-26 05:38:00,
2017-03-26 00:43:00,46.9,45.5,29.88,West,269,1.0,3.0,95,0.00,,,0.09,VWS V15.00,2017-03-26 05:43:00,
2017-03-26 00:48:00,46.9,45.5,29.88,West,269,0.0,3.0,95,0.00,,,0.09,VWS V15.00,2017-03-26 05:48:00,
2017-03-26 00:53:00,46.9,45.5,29.88,West,269,0.0,3.0,95,0.00,,,0.09,VWS V15.00,2017-03-26 05:53:00,
2017-03-26 00:58:00,46.9,45.5,29.88,West,269,0.0,3.0,95,0.00,,,0.09,VWS V15.00,2017-03-26 05:58:00,
2017-03-26 01:03:00,47.0,45.7,29.88,West,269,0.0,3.0,95,0.00,,,0.09,VWS V15.00,2017-03-26 06:03:00,
2017-03-26 01:08:00,47.0,45.7,29.88,West,269,0.0,3.0,95,0.00,,,0.09,VWS V15.00,2017-03-26 06:08:00,
2017-03-26 01:13:00,46.9,45.5,29.88,West,269,0.0,3.0,95,0.00,,,0.00,VWS V15.00,2017-03-26 06:13:00,
2017-03-26 01:23:00,46.9,45.5,29.88,West,269,0.0,3.0,95,0.00,,,0.00,VWS V15.00,2017-03-26 06:23:00,
2017-03-26 01:28:00,46.9,45.5,29.87,West,269,0.0,3.0,95,0.00,,,0.00,VWS V15.00,2017-03-26 06:28:00,
2017-03-26 01:38:00,46.9,45.5,29.87,West,269,0.0,3.0,95,0.00,,,0.00,VWS V15.00,2017-03-26 06:38:00,
2017-03-26 01:45:00,46.5,45.2,29.87,West,269,0.0,3.0,95,0.00,,,0.00,VWS V15.00,2017-03-26 06:45:00,
2017-03-26 01:53:00,46.9,45.5,29.87,West,269,0.0,3.0,95,0.00,,,0.00,VWS V15.00,2017-03-26 06:53:00,
2017-03-26 01:55:00,46.5,45.2,29.87,West,269,0.0,3.0,95,0.00,,,0.00,VWS V15.00,2017-03-26 06:55:00,
2017-03-26 01:58:00,46.9,45.5,29.87,West,269,0.0,3.0,95,0.00,,,0.00,VWS V15.00,2017-03-26 06:58:00,
2017-03-26 02:08:00,46.8,45.5,29.87,West,269,0.0,3.0,95,0.00,,,0.00,VWS V15.00,2017-03-26 07:08:00,
2017-03-26 02:13:00,46.8,45.5,29.87,West,269,0.0,3.0,95,0.00,,,0.00,VWS V15.00,2017-03-26 07:13:00,
2017-03-26 02:18:00,46.8,45.5,29.87,West,269,0.0,3.0,95,0.00,,,0.00,VWS V15.00,2017-03-26 07:18:00,
2017-03-26 02:20:00,46.5,45.2,29.88,West,269,0.0,3.0,95,0.00,,,0.00,VWS V15.00,2017-03-26 07:20:00,
2017-03-26 02:28:00,46.8,45.5,29.87,West,269,0.0,3.0,95,0.00,,,0.00,VWS V15.00,2017-03-26 07:28:00,
2017-03-26 02:33:00,46.7,45.3,29.87,West,269,0.0,3.0,95,0.00,,,0.00,VWS V15.00,2017-03-26 07:33:00,
2017-03-26 02:35:00,46.6,45.5,29.88,West,269,0.0,3.0,96,0.00,,,0.00,VWS V15.00,2017-03-26 07:35:00,
2017-03-26 02:38:00,46.6,45.2,29.87,West,269,0.0,3.0,95,0.00,,,0.00,VWS V15.00,2017-03-26 07:38:00,
2017-03-26 02:43:00,46.6,45.2,29.87,West,269,0.0,3.0,95,0.00,,,0.00,VWS V15.00,2017-03-26 07:43:00,
2017-03-26 02:48:00,46.5,45.2,29.87,West,269,0.0,3.0,95,0.00,,,0.00,VWS V15.00,2017-03-26 07:48:00,
2017-03-26 02:53:00,46.5,45.2,29.87,West,269,0.0,3.0,95,0.00,,,0.00,VWS V15.00,2017-03-26 07:53:00,
2017-03-26 03:00:00,46.6,45.5,29.88,West,269,0.0,3.0,96,0.00,,,0.00,VWS V15.00,2017-03-26 08:00:00,
2017-03-26 03:13:00,46.5,45.2,29.88,West,269,1.0,3.0,95,0.00,,,0.00,VWS V15.00,2017-03-26 08:13:00,
2017-03-26 03:18:00,46.4,45.0,29.88,West,269,0.0,3.0,95,0.00,,,0.00,VWS V15.00,2017-03-26 08:18:00,
2017-03-26 03:23:00,46.4,45.0,29.88,West,269,0.0,3.0,95,0.00,,,0.00,VWS V15.00,2017-03-26 08:23:00,
2017-03-26 03:43:00,46.5,45.2,29.88,West,269,1.0,3.0,95,0.00,,,0.00,VWS V15.00,2017-03-26 08:43:00,
2017-03-26 03:45:00,46.3,45.0,29.89,West,279,0.0,3.0,95,0.00,,,0.00,VWS V15.00,2017-03-26 08:45:00,
2017-03-26 03:53:00,46.6,45.5,29.88,West,269,0.0,3.0,96,0.00,,,0.00,VWS V15.00,2017-03-26 08:53:00,
2017-03-26 03:58:00,46.6,45.5,29.88,West,269,0.0,3.0,96,0.00,,,0.00,VWS V15.00,2017-03-26 08:58:00,
2017-03-26 04:00:00,46.0,44.7,29.89,West,280,0.0,3.0,95,0.00,,,0.00,VWS V15.00,2017-03-26 09:00:00,
2017-03-26 04:03:00,46.6,45.5,29.88,West,269,0.0,3.0,96,0.00,,,0.00,VWS V15.00,2017-03-26 09:03:00,
2017-03-26 04:18:00,46.5,45.4,29.88,West,269,0.0,3.0,96,0.00,,,0.00,VWS V15.00,2017-03-26 09:18:00,
2017-03-26 04:27:00,46.4,45.0,29.89,West,269,0.0,3.0,95,0.00,,,0.00,VWS V15.00,2017-03-26 09:27:00,
2017-03-26 04:33:00,46.4,45.0,29.89,West,269,0.0,3.0,95,0.00,,,0.00,VWS V15.00,2017-03-26 09:33:00,
2017-03-26 04:43:00,46.4,45.0,29.88,West,269,0.0,3.0,95,0.00,,,0.00,VWS V15.00,2017-03-26 09:43:00,
2017-03-26 04:48:00,46.4,45.0,29.88,WNW,302,2.0,3.0,95,0.00,,,0.00,VWS V15.00,2017-03-26 09:48:00,
2017-03-26 05:03:00,46.2,44.8,29.89,West,280,1.0,3.0,95,0.00,,,0.00,VWS V15.00,2017-03-26 10:03:00,
2017-03-26 05:08:00,46.1,44.8,29.89,West,280,0.0,3.0,95,0.00,,,0.00,VWS V15.00,2017-03-26 10:08:00,